Time;durP1;ratioP1;P1;durP2;ratioP2;P2;SDS_P1;SDS_P2;PMS_P1;PMS_P2;Temp;Humidity;BMP_temperature;BMP_pressure;BME280_temperature;BME280_humidity;BME280_pressure;Samples;Min_cycle;Max_cycle;Signal;HPM_P1;HPM_P2
2022/05/06 00:01:32;;;;;;;3.60;2.60;;;11.10;92.00;;;;;;5032568;28;20033;-79
2022/05/06 00:03:58;;;;;;;7.60;2.92;;;11.10;92.10;;;;;;5043536;28;20025;-79
2022/05/06 00:06:23;;;;;;;5.68;2.67;;;11.00;92.20;;;;;;5065651;28;20420;-81
2022/05/06 00:08:49;;;;;;;4.20;2.53;;;11.10;92.40;;;;;;5052467;28;20045;-81
2022/05/06 00:11:14;;;;;;;2.55;2.08;;;11.00;92.40;;;;;;5053560;28;20124;-79
2022/05/06 00:13:40;;;;;;;4.30;2.22;;;11.00;92.40;;;;;;5037146;28;20257;-81
2022/05/06 00:16:06;;;;;;;3.83;2.40;;;11.00;92.40;;;;;;5032687;28;20350;-79
2022/05/06 00:18:32;;;;;;;4.28;2.60;;;11.00;92.40;;;;;;5036783;28;20025;-80
2022/05/06 00:20:58;;;;;;;3.55;2.25;;;11.00;92.30;;;;;;5059971;28;20024;-82
2022/05/06 00:23:23;;;;;;;4.20;2.78;;;11.00;92.30;;;;;;5052539;28;20033;-79
2022/05/06 00:25:49;;;;;;;4.55;2.75;;;11.00;92.30;;;;;;5051548;28;20040;-80
2022/05/06 00:28:15;;;;;;;5.93;2.80;;;11.00;92.30;;;;;;5052465;28;20385;-79
2022/05/06 00:30:41;;;;;;;3.28;2.83;;;11.00;92.30;;;;;;5052680;28;20029;-81
2022/05/06 00:33:09;;;;;;;4.72;3.20;;;11.00;92.30;;;;;;5040074;28;20025;-78
2022/05/06 00:35:36;;;;;;;6.03;3.28;;;11.00;92.30;;;;;;5052509;28;20033;-78
2022/05/06 00:38:02;;;;;;;4.53;3.50;;;11.00;92.30;;;;;;5046214;28;20022;-78
2022/05/06 00:40:28;;;;;;;3.28;2.63;;;11.00;92.20;;;;;;5073106;28;20030;-78
2022/05/06 00:42:55;;;;;;;4.68;2.83;;;11.00;92.10;;;;;;5056199;28;20039;-79
2022/05/06 00:45:21;;;;;;;4.78;3.17;;;10.90;92.20;;;;;;5048138;28;20083;-79
2022/05/06 00:47:47;;;;;;;4.07;2.60;;;10.90;92.20;;;;;;5038633;28;20044;-78
2022/05/06 00:50:12;;;;;;;7.20;3.58;;;10.90;92.40;;;;;;5047959;28;20057;-78
2022/05/06 00:52:38;;;;;;;3.63;2.42;;;10.90;92.50;;;;;;5049026;28;20090;-79
2022/05/06 00:55:04;;;;;;;3.33;2.65;;;10.90;92.50;;;;;;5040663;28;20520;-80
2022/05/06 00:57:30;;;;;;;4.15;2.50;;;10.80;92.40;;;;;;5048442;28;20490;-79
2022/05/06 01:02:41;;;;;;;5.38;2.88;;;10.80;92.80;;;;;;5041566;28;20429;-79
2022/05/06 01:05:09;;;;;;;4.32;3.33;;;10.70;92.90;;;;;;5047142;28;20021;-79
2022/05/06 01:07:35;;;;;;;4.55;3.22;;;10.70;92.90;;;;;;5045310;28;20079;-80
2022/05/06 01:10:00;;;;;;;4.38;2.80;;;10.70;93.10;;;;;;5055002;28;20032;-78
2022/05/06 01:12:26;;;;;;;5.15;3.28;;;10.60;93.10;;;;;;5043561;28;20028;-79
2022/05/06 01:14:51;;;;;;;8.80;3.47;;;10.60;93.20;;;;;;5036587;28;20065;-79
2022/05/06 01:17:18;;;;;;;3.75;2.78;;;10.60;93.30;;;;;;5059208;28;20079;-81
2022/05/06 01:19:43;;;;;;;3.83;2.63;;;10.50;93.30;;;;;;5053052;28;20025;-81
2022/05/06 01:22:09;;;;;;;4.97;3.72;;;10.60;93.40;;;;;;5038153;28;20637;-79
2022/05/06 01:24:34;;;;;;;3.50;2.75;;;10.50;93.40;;;;;;5037266;28;20033;-80
2022/05/06 01:27:06;;;;;;;5.05;3.05;;;10.50;93.40;;;;;;5048542;28;20028;-79
2022/05/06 01:29:32;;;;;;;5.50;2.97;;;10.50;93.40;;;;;;5044072;28;20113;-79
2022/05/06 01:31:58;;;;;;;4.57;3.05;;;10.40;93.40;;;;;;5059965;28;20081;-79
2022/05/06 01:34:27;;;;;;;5.53;3.25;;;10.40;93.50;;;;;;5064075;28;20045;-79
2022/05/06 01:36:57;;;;;;;3.70;2.95;;;10.40;93.60;;;;;;5058892;28;20031;-78
2022/05/06 01:39:28;;;;;;;5.68;3.17;;;10.40;93.70;;;;;;5048772;28;20112;-80
2022/05/06 01:41:58;;;;;;;4.15;2.80;;;10.30;93.70;;;;;;5060843;28;20136;-79
2022/05/06 01:44:25;;;;;;;4.15;3.20;;;10.40;93.70;;;;;;5058440;28;20029;-81
2022/05/06 01:46:57;;;;;;;4.13;2.80;;;10.30;93.80;;;;;;5061913;28;20477;-81
2022/05/06 01:49:23;;;;;;;3.60;2.90;;;10.30;94.00;;;;;;5038236;28;20088;-81
2022/05/06 01:51:50;;;;;;;4.70;2.70;;;10.30;94.10;;;;;;5046827;28;20036;-79
2022/05/06 01:54:15;;;;;;;5.07;2.70;;;10.30;94.20;;;;;;5043152;28;20025;-80
2022/05/06 01:56:43;;;;;;;4.28;2.85;;;10.30;94.30;;;;;;5043912;28;20461;-79
2022/05/06 01:59:09;;;;;;;4.95;2.80;;;10.20;94.30;;;;;;5059296;28;20424;-79
2022/05/06 02:01:34;;;;;;;3.53;2.80;;;10.20;94.40;;;;;;5054314;28;20033;-80
2022/05/06 02:06:44;;;;;;;5.57;3.17;;;10.20;94.20;;;;;;5057886;28;20768;-78
2022/05/06 02:09:10;;;;;;;5.43;2.67;;;10.20;94.30;;;;;;5053948;28;20030;-80
2022/05/06 02:11:35;;;;;;;4.25;3.22;;;10.20;94.30;;;;;;5033094;28;20029;-82
2022/05/06 02:14:01;;;;;;;4.03;3.08;;;10.10;94.30;;;;;;5031769;28;20462;-80
2022/05/06 02:16:28;;;;;;;8.13;3.22;;;10.10;94.50;;;;;;5037630;28;20028;-80
2022/05/06 02:18:53;;;;;;;3.78;2.88;;;10.10;94.60;;;;;;5056022;28;20043;-81
2022/05/06 02:21:19;;;;;;;5.25;3.03;;;10.10;94.70;;;;;;5038858;28;20522;-81
2022/05/06 02:23:44;;;;;;;5.95;2.80;;;10.10;94.70;;;;;;5043520;28;20033;-79
2022/05/06 02:26:10;;;;;;;3.35;2.60;;;10.00;94.60;;;;;;5056472;28;20430;-80
2022/05/06 02:28:35;;;;;;;5.57;3.13;;;10.10;94.60;;;;;;5049582;28;20033;-83
2022/05/06 02:33:45;;;;;;;5.07;3.25;;;10.00;94.60;;;;;;5031534;28;20365;-80
2022/05/06 02:36:11;;;;;;;3.22;2.90;;;10.00;94.50;;;;;;5042108;28;20416;-80
2022/05/06 02:38:36;;;;;;;4.65;3.15;;;10.00;94.60;;;;;;5061240;28;20445;-80
2022/05/06 02:41:02;;;;;;;7.00;2.88;;;10.10;94.60;;;;;;5059857;28;20051;-80
2022/05/06 02:43:28;;;;;;;4.57;2.97;;;10.00;94.60;;;;;;5041661;28;20385;-79
2022/05/06 02:45:53;;;;;;;3.65;2.40;;;10.10;94.60;;;;;;5048420;28;20178;-80
2022/05/06 02:48:19;;;;;;;5.80;3.15;;;10.00;94.60;;;;;;5062406;28;20020;-80
2022/05/06 02:50:44;;;;;;;6.03;3.10;;;10.00;94.60;;;;;;5045025;28;20029;-83
2022/05/06 02:53:10;;;;;;;4.95;3.55;;;10.00;94.70;;;;;;5031571;28;20029;-79
2022/05/06 02:55:36;;;;;;;6.93;2.95;;;10.00;94.80;;;;;;5048283;28;20021;-82
2022/05/06 02:58:03;;;;;;;6.43;3.28;;;10.00;94.80;;;;;;5060872;28;20024;-81
2022/05/06 03:00:29;;;;;;;3.95;2.80;;;9.90;94.90;;;;;;5050734;28;20091;-80
2022/05/06 03:02:56;;;;;;;5.25;2.97;;;9.90;94.90;;;;;;5033977;28;20029;-81
2022/05/06 03:05:23;;;;;;;6.75;3.13;;;9.90;95.00;;;;;;5042447;28;20028;-79
2022/05/06 03:07:48;;;;;;;4.43;3.33;;;9.90;95.00;;;;;;5047256;28;20166;-81
2022/05/06 03:10:14;;;;;;;7.55;3.72;;;9.80;95.00;;;;;;5050118;28;20128;-80
2022/05/06 03:12:43;;;;;;;7.18;3.40;;;9.80;95.10;;;;;;5036295;28;20028;-79
2022/05/06 03:15:10;;;;;;;3.63;3.13;;;9.80;95.20;;;;;;5049998;28;20048;-80
2022/05/06 03:17:36;;;;;;;4.72;3.28;;;9.70;95.20;;;;;;5056105;28;20112;-81
2022/05/06 03:20:05;;;;;;;7.57;3.60;;;9.70;95.20;;;;;;5045365;28;20132;-79
2022/05/06 03:22:35;;;;;;;5.80;3.58;;;9.60;95.20;;;;;;5037777;28;20799;-79
2022/05/06 03:25:01;;;;;;;4.72;3.60;;;9.60;95.30;;;;;;5044340;28;20027;-82
2022/05/06 03:30:11;;;;;;;3.75;3.05;;;9.50;95.50;;;;;;5051725;28;20028;-80
2022/05/06 03:32:36;;;;;;;4.63;3.65;;;9.50;95.50;;;;;;5055289;28;20033;-78
2022/05/06 03:35:02;;;;;;;4.55;3.40;;;9.50;95.60;;;;;;5048837;28;20516;-80
2022/05/06 03:37:28;;;;;;;3.97;3.47;;;9.50;95.70;;;;;;5035597;28;20375;-79
2022/05/06 03:39:54;;;;;;;3.97;3.55;;;9.40;95.70;;;;;;5041510;28;20029;-81
2022/05/06 03:42:19;;;;;;;6.00;3.33;;;9.40;95.80;;;;;;5058745;28;20037;-79
2022/05/06 03:44:45;;;;;;;4.88;3.40;;;9.40;95.90;;;;;;5047341;28;20029;-78
2022/05/06 03:47:11;;;;;;;4.72;3.35;;;9.40;96.00;;;;;;5049346;28;20021;-79
2022/05/06 03:49:36;;;;;;;5.25;3.58;;;9.40;96.00;;;;;;5052443;28;20521;-82
2022/05/06 03:52:03;;;;;;;6.22;3.55;;;9.40;96.20;;;;;;5051782;28;20480;-78
2022/05/06 03:54:29;;;;;;;5.03;3.40;;;9.40;96.20;;;;;;5035056;28;20049;-81
2022/05/06 03:56:54;;;;;;;7.20;4.32;;;9.40;96.10;;;;;;5046287;28;20478;-78
2022/05/06 03:59:20;;;;;;;5.82;3.33;;;9.40;96.00;;;;;;5037583;28;20469;-78
2022/05/06 04:01:45;;;;;;;6.13;3.25;;;9.50;96.00;;;;;;5052347;28;20051;-80
2022/05/06 04:04:11;;;;;;;4.63;3.42;;;9.50;95.90;;;;;;5045128;28;20026;-78
2022/05/06 04:06:36;;;;;;;5.55;3.55;;;9.50;96.00;;;;;;5046044;28;20063;-78
2022/05/06 04:09:02;;;;;;;8.07;3.50;;;9.50;96.00;;;;;;5043962;28;20029;-79
2022/05/06 04:11:28;;;;;;;6.05;4.00;;;9.60;96.00;;;;;;5056232;28;20092;-79
2022/05/06 04:13:53;;;;;;;6.55;3.42;;;9.60;96.00;;;;;;5046937;28;20068;-79
2022/05/06 04:16:19;;;;;;;7.75;3.90;;;9.60;96.00;;;;;;5059501;28;20029;-78
2022/05/06 04:18:44;;;;;;;5.28;4.15;;;9.70;96.00;;;;;;5062040;28;20150;-79
2022/05/06 04:23:54;;;;;;;6.38;3.97;;;9.70;95.90;;;;;;5030150;28;20532;-79
2022/05/06 04:26:19;;;;;;;5.60;3.97;;;9.80;95.90;;;;;;5041055;28;20056;-80
2022/05/06 04:28:45;;;;;;;10.10;4.45;;;9.80;96.00;;;;;;5058416;28;20052;-80
2022/05/06 04:31:10;;;;;;;5.53;3.80;;;9.90;96.00;;;;;;5047253;28;20048;-81
2022/05/06 04:33:40;;;;;;;6.00;3.80;;;9.90;95.90;;;;;;5033485;28;20108;-83
2022/05/06 04:36:06;;;;;;;9.93;4.05;;;10.00;96.00;;;;;;5037120;28;20022;-80
2022/05/06 04:38:32;;;;;;;6.28;4.07;;;10.00;96.00;;;;;;5058989;28;20032;-80
2022/05/06 04:40:59;;;;;;;5.20;4.10;;;10.10;96.00;;;;;;5052706;28;20036;-80
2022/05/06 04:43:26;;;;;;;7.22;4.07;;;10.10;96.00;;;;;;5049422;28;20068;-78
2022/05/06 04:45:53;;;;;;;6.53;3.90;;;10.10;95.90;;;;;;5037359;28;20028;-80
2022/05/06 04:48:18;;;;;;;4.50;3.58;;;10.20;95.90;;;;;;5045875;28;20075;-80
2022/05/06 04:50:45;;;;;;;6.95;4.10;;;10.20;95.80;;;;;;5049165;28;20104;-80
2022/05/06 04:53:11;;;;;;;7.55;3.97;;;10.30;95.80;;;;;;5055368;28;20033;-84
2022/05/06 04:55:38;;;;;;;4.80;3.72;;;10.30;95.80;;;;;;5062200;28;20440;-80
2022/05/06 04:58:05;;;;;;;9.18;4.45;;;10.40;95.80;;;;;;5061986;28;20032;-80
2022/05/06 05:00:31;;;;;;;6.05;4.38;;;10.50;95.90;;;;;;5050327;28;20107;-80
2022/05/06 05:03:00;;;;;;;6.20;4.18;;;10.50;95.80;;;;;;5044868;28;20030;-80
2022/05/06 05:05:26;;;;;;;5.28;3.80;;;10.60;95.80;;;;;;5043364;28;20106;-81
2022/05/06 05:07:53;;;;;;;5.00;3.03;;;10.60;95.70;;;;;;5044024;28;20063;-81
2022/05/06 05:10:18;;;;;;;7.25;4.60;;;10.70;95.70;;;;;;5044549;28;20043;-80
2022/05/06 05:12:44;;;;;;;8.20;3.67;;;10.80;95.50;;;;;;5056894;28;20532;-82
2022/05/06 05:15:10;;;;;;;9.05;3.90;;;10.90;95.60;;;;;;5047955;28;20029;-80
2022/05/06 05:17:36;;;;;;;9.80;4.20;;;10.90;95.40;;;;;;5035128;28;20115;-82
2022/05/06 05:20:02;;;;;;;4.60;3.72;;;11.00;95.30;;;;;;5044368;28;20024;-82
2022/05/06 05:22:28;;;;;;;7.50;3.80;;;11.00;95.10;;;;;;5051226;28;20024;-80
2022/05/06 05:24:54;;;;;;;5.65;3.92;;;11.10;95.00;;;;;;5057453;28;20031;-80
2022/05/06 05:27:19;;;;;;;9.13;4.47;;;11.10;94.60;;;;;;5044183;28;20052;-80
2022/05/06 05:29:45;;;;;;;9.52;4.13;;;11.20;94.50;;;;;;5047378;28;20028;-82
2022/05/06 05:32:11;;;;;;;6.82;3.70;;;11.20;94.40;;;;;;5051622;28;20037;-79
2022/05/06 05:34:37;;;;;;;10.00;3.85;;;11.30;94.40;;;;;;5047696;28;20119;-80
2022/05/06 05:37:03;;;;;;;10.52;4.53;;;11.40;94.20;;;;;;5047972;28;20100;-80
2022/05/06 05:39:31;;;;;;;8.23;3.70;;;11.40;94.00;;;;;;5046381;28;20040;-80
2022/05/06 05:41:56;;;;;;;12.18;4.03;;;11.50;93.90;;;;;;5041649;28;20408;-82
2022/05/06 05:49:50;;;;;;;7.55;3.50;;;11.70;93.80;;;;;;5045691;28;20546;-82
2022/05/06 05:52:15;;;;;;;9.32;4.00;;;11.70;93.70;;;;;;5052934;28;20029;-81
2022/05/06 05:54:41;;;;;;;10.85;4.57;;;11.70;93.40;;;;;;5048673;28;20544;-79
2022/05/06 05:57:07;;;;;;;7.72;4.53;;;11.80;93.50;;;;;;5048572;28;20029;-81
2022/05/06 05:59:33;;;;;;;6.10;3.85;;;11.90;93.50;;;;;;5049137;28;20059;-78
2022/05/06 06:02:01;;;;;;;13.05;5.32;;;11.90;93.40;;;;;;5041855;28;20144;-79
2022/05/06 06:04:27;;;;;;;6.65;3.78;;;12.00;93.30;;;;;;5047646;28;20074;-79
2022/05/06 06:06:52;;;;;;;5.22;3.38;;;12.10;93.10;;;;;;5048314;28;20450;-80
2022/05/06 06:09:22;;;;;;;11.02;3.58;;;12.20;92.90;;;;;;5043422;28;20642;-78
2022/05/06 06:11:50;;;;;;;8.35;3.65;;;12.20;92.90;;;;;;5040727;28;20044;-78
2022/05/06 06:14:16;;;;;;;4.93;3.50;;;12.30;92.90;;;;;;5048902;28;20071;-78
2022/05/06 06:16:43;;;;;;;8.23;4.28;;;12.40;92.90;;;;;;5047648;28;20032;-81
2022/05/06 06:19:08;;;;;;;11.50;4.00;;;12.50;92.90;;;;;;5048895;28;20021;-80
2022/05/06 06:21:34;;;;;;;9.15;3.70;;;12.50;92.50;;;;;;5043934;28;20039;-78
2022/05/06 06:23:59;;;;;;;10.98;4.20;;;12.60;92.80;;;;;;5041766;28;20504;-78
2022/05/06 06:26:25;;;;;;;12.25;3.88;;;12.60;92.70;;;;;;5048768;28;20067;-79
2022/05/06 06:28:50;;;;;;;7.22;4.03;;;12.70;92.50;;;;;;5047573;28;20505;-82
2022/05/06 06:31:16;;;;;;;9.57;4.03;;;12.60;92.70;;;;;;5050475;28;20041;-80
2022/05/06 06:33:42;;;;;;;17.80;4.88;;;12.70;92.70;;;;;;5051735;28;20185;-79
2022/05/06 06:36:08;;;;;;;6.68;4.28;;;12.80;92.90;;;;;;5045474;28;20421;-82
2022/05/06 06:38:33;;;;;;;4.47;3.53;;;12.90;92.70;;;;;;5047356;28;20035;-79
2022/05/06 06:41:02;;;;;;;7.47;4.07;;;13.00;92.70;;;;;;5049058;28;20637;-81
2022/05/06 06:43:27;;;;;;;7.10;4.22;;;13.10;92.50;;;;;;5049205;28;20096;-79
2022/05/06 06:45:53;;;;;;;6.05;4.90;;;13.10;92.70;;;;;;5039157;28;20128;-78
2022/05/06 06:48:19;;;;;;;7.30;4.25;;;13.20;92.50;;;;;;5047712;28;20036;-80
2022/05/06 06:50:44;;;;;;;12.15;4.07;;;13.30;92.40;;;;;;5048981;28;20059;-79
2022/05/06 06:53:10;;;;;;;8.07;3.72;;;13.30;92.50;;;;;;5049702;28;20079;-81
2022/05/06 06:55:36;;;;;;;6.05;4.15;;;13.40;92.40;;;;;;5042325;28;20027;-76
2022/05/06 06:58:02;;;;;;;9.02;4.28;;;13.50;92.40;;;;;;5046775;28;20594;-82
2022/05/06 07:00:27;;;;;;;13.30;3.65;;;13.50;92.30;;;;;;5045620;28;20053;-79
2022/05/06 07:02:55;;;;;;;8.80;5.00;;;13.70;92.10;;;;;;5041489;28;20037;-79
2022/05/06 07:05:21;;;;;;;9.10;4.22;;;13.80;92.10;;;;;;5043382;28;20100;-81
2022/05/06 07:13:17;;;;;;;6.25;3.75;;;14.30;91.30;;;;;;5040633;28;20051;-79
2022/05/06 07:15:42;;;;;;;7.45;3.80;;;14.50;91.10;;;;;;5046883;28;20021;-82
2022/05/06 07:18:08;;;;;;;9.30;3.72;;;14.70;90.80;;;;;;5048136;28;20024;-81
2022/05/06 07:20:33;;;;;;;7.95;3.65;;;14.80;90.60;;;;;;5047319;28;20033;-80
2022/05/06 07:22:59;;;;;;;4.80;3.60;;;14.90;91.20;;;;;;5040832;28;20033;-80
2022/05/06 07:25:25;;;;;;;6.68;3.50;;;15.00;90.80;;;;;;5034430;28;20382;-81
2022/05/06 07:27:50;;;;;;;7.32;3.40;;;15.20;90.80;;;;;;5047846;28;20032;-82
2022/05/06 07:30:16;;;;;;;8.02;3.42;;;15.40;90.60;;;;;;5039757;28;20104;-80
2022/05/06 07:32:41;;;;;;;7.88;3.78;;;15.50;90.50;;;;;;5047726;28;20029;-82
2022/05/06 07:35:07;;;;;;;7.85;3.45;;;15.70;90.20;;;;;;5046324;28;20173;-81
2022/05/06 07:37:33;;;;;;;6.13;3.65;;;15.70;88.70;;;;;;5047609;28;20672;-80
2022/05/06 07:40:03;;;;;;;5.20;3.08;;;15.80;89.70;;;;;;5048045;28;20108;-81
2022/05/06 07:42:30;;;;;;;3.83;2.92;;;15.90;88.80;;;;;;5045767;28;20037;-82
2022/05/06 07:44:57;;;;;;;5.05;2.53;;;16.10;89.10;;;;;;5046160;28;20124;-83
2022/05/06 07:47:23;;;;;;;4.40;2.05;;;16.40;88.40;;;;;;5045986;28;20108;-84
2022/05/06 07:49:48;;;;;;;4.80;2.42;;;16.50;85.10;;;;;;5047584;28;20572;-82
2022/05/06 07:52:14;;;;;;;4.25;2.38;;;16.70;84.50;;;;;;5047638;28;20052;-82
2022/05/06 07:54:39;;;;;;;2.70;2.13;;;16.80;84.20;;;;;;5046472;28;20608;-81
2022/05/06 07:57:05;;;;;;;3.80;2.33;;;17.00;82.80;;;;;;5047077;28;20069;-83
2022/05/06 07:59:30;;;;;;;7.45;3.42;;;17.00;81.30;;;;;;5046812;28;20083;-81
2022/05/06 08:04:40;;;;;;;17.20;3.17;;;16.90;80.60;;;;;;5051509;28;20428;-81
2022/05/06 08:07:08;;;;;;;4.15;2.58;;;17.10;82.00;;;;;;5047468;28;20465;-80
2022/05/06 08:09:34;;;;;;;4.45;1.92;;;17.20;82.40;;;;;;5044010;28;20435;-83
2022/05/06 08:12:00;;;;;;;3.17;2.17;;;17.40;82.70;;;;;;5030950;28;20025;-81
2022/05/06 08:14:25;;;;;;;3.70;2.22;;;17.60;82.50;;;;;;5047867;28;20032;-82
2022/05/06 08:16:52;;;;;;;5.20;1.95;;;17.70;80.20;;;;;;5050876;28;20082;-79
2022/05/06 08:19:18;;;;;;;2.78;2.03;;;17.90;79.90;;;;;;5040274;28;20524;-80
2022/05/06 08:21:44;;;;;;;4.40;1.65;;;18.10;81.60;;;;;;5047364;28;20482;-80
2022/05/06 08:24:09;;;;;;;4.00;1.83;;;18.20;79.60;;;;;;5031972;28;20060;-80
2022/05/06 08:26:35;;;;;;;3.80;1.70;;;18.20;80.40;;;;;;5031728;28;20074;-82
2022/05/06 08:29:01;;;;;;;4.13;2.47;;;18.20;79.40;;;;;;5051783;28;20060;-80
2022/05/06 08:31:27;;;;;;;3.92;2.00;;;18.20;79.00;;;;;;5051044;28;20450;-82
2022/05/06 08:33:54;;;;;;;6.20;2.47;;;18.40;79.80;;;;;;5051569;28;20783;-83
2022/05/06 08:36:19;;;;;;;5.28;2.30;;;18.50;78.30;;;;;;5039986;28;20033;-79
2022/05/06 08:38:45;;;;;;;4.07;2.35;;;18.40;79.30;;;;;;5045434;28;20373;-80
2022/05/06 08:41:12;;;;;;;6.22;2.28;;;18.40;78.00;;;;;;5052085;28;20488;-82
2022/05/06 08:43:38;;;;;;;4.85;2.05;;;18.40;79.00;;;;;;5050670;28;20114;-79
2022/05/06 08:51:39;;;;;;;6.22;2.88;;;18.80;77.80;;;;;;5052395;28;20709;-84
2022/05/06 08:54:06;;;;;;;3.25;2.50;;;19.00;78.70;;;;;;5049755;28;20059;-80
2022/05/06 08:56:31;;;;;;;5.70;2.45;;;19.20;78.80;;;;;;5050134;28;20096;-81
2022/05/06 08:58:58;;;;;;;3.13;2.05;;;19.30;76.90;;;;;;5052133;28;20150;-80
2022/05/06 09:01:24;;;;;;;4.78;2.33;;;19.40;76.50;;;;;;5045088;28;20025;-81
2022/05/06 09:03:50;;;;;;;5.07;2.42;;;19.60;75.70;;;;;;5049017;28;20120;-83
2022/05/06 09:06:23;;;;;;;4.22;2.10;;;19.60;74.90;;;;;;5041174;28;20466;-80
2022/05/06 09:08:51;;;;;;;3.25;2.17;;;19.70;73.50;;;;;;5036055;28;20022;-80
2022/05/06 09:11:18;;;;;;;6.68;2.40;;;19.60;74.60;;;;;;5049328;28;20024;-82
2022/05/06 09:13:49;;;;;;;3.72;1.90;;;19.50;75.90;;;;;;5048920;28;20036;-78
2022/05/06 09:19:17;;;;;;;12.35;2.30;;;19.40;73.40;;;;;;5051542;28;20104;-83
2022/05/06 09:22:17;;;;;;;4.13;1.92;;;19.20;75.10;;;;;;5048397;28;20032;-81
2022/05/06 09:24:47;;;;;;;2.65;1.45;;;19.30;75.00;;;;;;5051388;28;20461;-83
2022/05/06 09:27:17;;;;;;;4.80;2.00;;;19.60;73.60;;;;;;5049654;28;20503;-81
2022/05/06 09:29:54;;;;;;;4.63;1.85;;;19.80;74.30;;;;;;5047670;28;20112;-80
2022/05/06 09:32:25;;;;;;;2.88;1.65;;;20.00;71.90;;;;;;5051225;28;20055;-79
2022/05/06 09:34:57;;;;;;;4.70;2.13;;;20.00;73.60;;;;;;5050731;28;20429;-80
2022/05/06 09:37:36;;;;;;;4.13;1.75;;;20.20;74.70;;;;;;5051356;28;20111;-80
2022/05/06 09:40:20;;;;;;;2.17;1.60;;;20.60;76.10;;;;;;5039011;28;20030;-81
2022/05/06 09:42:57;;;;;;;2.70;1.90;;;20.90;71.20;;;;;;5034547;28;20032;-81
2022/05/06 09:45:33;;;;;;;5.45;2.28;;;21.20;73.20;;;;;;5050174;28;20021;-82
2022/05/06 09:48:03;;;;;;;2.75;1.85;;;21.40;70.40;;;;;;5050905;28;20025;-80
2022/05/06 09:51:00;;;;;;;4.65;2.13;;;21.50;71.00;;;;;;5051133;28;20349;-82
2022/05/06 09:53:26;;;;;;;6.40;2.15;;;21.50;69.30;;;;;;5022278;28;20045;-80
2022/05/06 09:55:51;;;;;;;9.48;2.40;;;21.40;70.00;;;;;;5029047;28;20044;-80
2022/05/06 09:58:17;;;;;;;3.47;2.35;;;21.20;72.00;;;;;;5030547;28;20544;-80
2022/05/06 10:00:43;;;;;;;3.20;1.80;;;21.10;70.40;;;;;;5031033;28;20034;-80
2022/05/06 10:03:09;;;;;;;7.93;2.15;;;21.00;71.90;;;;;;5032381;28;20470;-80
2022/05/06 10:05:36;;;;;;;4.70;2.25;;;21.10;71.80;;;;;;5048082;28;20507;-80
2022/05/06 10:08:06;;;;;;;4.43;1.75;;;21.20;74.40;;;;;;5045211;28;20105;-81
2022/05/06 10:10:35;;;;;;;6.07;2.28;;;21.30;70.00;;;;;;5037531;28;20032;-80
2022/05/06 10:13:09;;;;;;;3.75;1.88;;;21.40;69.40;;;;;;5045216;28;20115;-78
2022/05/06 10:15:35;;;;;;;2.97;1.23;;;21.50;72.10;;;;;;5048606;28;20485;-80
2022/05/06 10:18:07;;;;;;;1.92;0.90;;;21.60;68.20;;;;;;5037658;28;20033;-79
2022/05/06 10:20:41;;;;;;;;;;;21.60;65.40;;;;;;5043397;28;20032;-81
2022/05/06 10:23:08;;;;;;;2.13;0.75;;;21.80;65.60;;;;;;5049921;28;19909;-80
2022/05/06 10:25:42;;;;;;;1.73;1.00;;;22.00;65.50;;;;;;5048528;28;20041;-81
2022/05/06 10:34:11;;;;;;;4.20;1.30;;;22.30;67.20;;;;;;5048579;28;20062;-78
2022/05/06 10:36:50;;;;;;;1.98;0.95;;;22.50;66.30;;;;;;5048980;28;20517;-77
2022/05/06 10:39:37;;;;;;;2.00;1.05;;;22.50;67.60;;;;;;5049262;28;20028;-79
2022/05/06 10:42:03;;;;;;;3.85;1.10;;;22.80;66.00;;;;;;5049536;28;20067;-78
2022/05/06 10:44:38;;;;;;;4.93;0.95;;;22.90;66.10;;;;;;5049011;28;20174;-78
2022/05/06 10:47:42;;;;;;;1.30;0.90;;;22.80;61.90;;;;;;5047794;28;20711;-81
2022/05/06 10:50:23;;;;;;;2.72;1.08;;;22.30;62.00;;;;;;5049166;28;20037;-79
2022/05/06 10:52:50;;;;;;;2.90;1.70;;;21.60;62.60;;;;;;5049172;28;20021;-79
2022/05/06 10:55:17;;;;;;;2.97;0.85;;;21.30;63.50;;;;;;5048633;28;20067;-85
2022/05/06 10:57:48;;;;;;;1.98;0.98;;;21.20;64.90;;;;;;5049627;28;20029;-85
2022/05/06 11:00:14;;;;;;;2.78;1.10;;;21.20;65.00;;;;;;5049932;28;20021;-84
2022/05/06 11:02:40;;;;;;;5.35;0.85;;;21.30;67.00;;;;;;5036274;28;20079;-84
2022/05/06 11:05:11;;;;;;;2.70;1.00;;;21.60;63.00;;;;;;5034961;28;20087;-81
2022/05/06 11:07:38;;;;;;;4.18;1.33;;;21.70;63.20;;;;;;5033010;28;20028;-81
2022/05/06 11:10:11;;;;;;;2.58;1.30;;;21.90;63.90;;;;;;5050090;28;20035;-82
2022/05/06 11:12:40;;;;;;;2.65;1.20;;;21.80;62.80;;;;;;5049700;28;20059;-80
2022/05/06 11:15:08;;;;;;;2.90;0.70;;;21.70;63.40;;;;;;5050288;28;20017;-81
2022/05/06 11:17:34;;;;;;;1.52;0.77;;;21.80;61.70;;;;;;5049530;28;20044;-82
2022/05/06 11:20:13;;;;;;;2.33;1.00;;;22.00;65.30;;;;;;5056622;28;20033;-81
2022/05/06 11:22:52;;;;;;;1.05;0.50;;;22.40;60.80;;;;;;5049571;28;20048;-82
2022/05/06 11:25:17;;;;;;;1.60;0.60;;;22.40;61.70;;;;;;5045052;28;20029;-80
2022/05/06 11:27:43;;;;;;;3.00;1.70;;;22.60;61.80;;;;;;5050102;28;20211;-81
2022/05/06 11:30:16;;;;;;;1.77;0.90;;;22.90;61.10;;;;;;5043806;28;20025;-82
2022/05/06 11:32:47;;;;;;;2.30;1.05;;;23.10;60.30;;;;;;5035305;28;20063;-82
2022/05/06 11:35:18;;;;;;;1.63;0.90;;;23.00;59.70;;;;;;5045165;28;20076;-81
2022/05/06 11:37:44;;;;;;;2.00;0.95;;;23.10;62.80;;;;;;5035907;28;20021;-80
2022/05/06 11:42:51;;;;;;;2.17;0.88;;;23.10;60.60;;;;;;5036907;28;20068;-82
2022/05/06 11:48:07;;;;;;;3.40;0.98;;;22.90;60.70;;;;;;5041240;28;20036;-81
2022/05/06 11:50:34;;;;;;;1.27;0.70;;;22.80;59.40;;;;;;5038323;28;20036;-79
2022/05/06 11:53:01;;;;;;;1.60;0.70;;;22.80;61.70;;;;;;5043983;28;20040;-81
2022/05/06 11:55:30;;;;;;;1.88;0.85;;;22.80;60.80;;;;;;5044455;28;20033;-80
2022/05/06 11:57:59;;;;;;;1.30;0.70;;;22.60;61.20;;;;;;5035784;28;20428;-82
2022/05/06 12:00:25;;;;;;;1.55;0.85;;;22.30;59.10;;;;;;5043290;28;20039;-80
2022/05/06 12:02:51;;;;;;;1.70;0.52;;;22.00;60.50;;;;;;5034601;28;20044;-82
2022/05/06 12:05:18;;;;;;;2.67;0.57;;;21.80;59.20;;;;;;5032215;28;20029;-80
2022/05/06 12:07:46;;;;;;;0.93;0.60;;;21.80;59.80;;;;;;5041894;28;20052;-81
2022/05/06 12:10:25;;;;;;;2.42;0.52;;;21.80;59.30;;;;;;5030475;28;20061;-80
2022/05/06 12:12:56;;;;;;;1.50;1.38;;;21.80;59.00;;;;;;5040830;28;20626;-81
2022/05/06 12:15:32;;;;;;;9.85;0.93;;;22.10;60.70;;;;;;5039926;28;20029;-81
2022/05/06 12:18:11;;;;;;;6.20;0.85;;;22.50;60.10;;;;;;5032582;28;20112;-81
2022/05/06 12:20:42;;;;;;;0.63;0.43;;;23.00;57.30;;;;;;5039649;28;20097;-82
2022/05/06 12:23:10;;;;;;;4.15;0.60;;;23.20;57.70;;;;;;5035865;28;20067;-84
2022/05/06 12:25:40;;;;;;;0.85;0.50;;;23.40;60.20;;;;;;5039165;28;20083;-81
2022/05/06 12:28:06;;;;;;;1.42;0.55;;;23.90;60.50;;;;;;5048613;28;20472;-82
2022/05/06 12:30:32;;;;;;;3.92;0.40;;;24.10;56.40;;;;;;5049246;28;20052;-84
2022/05/06 12:33:27;;;;;;;0.88;0.57;;;24.30;57.10;;;;;;5043226;28;20033;-84
2022/05/06 12:35:54;;;;;;;5.97;0.98;;;24.30;57.20;;;;;;5055229;28;20112;-80
2022/05/06 12:38:21;;;;;;;2.00;0.73;;;24.20;56.60;;;;;;5046849;28;20056;-79
2022/05/06 12:40:47;;;;;;;1.65;0.70;;;23.80;56.40;;;;;;5041273;28;20500;-78
2022/05/06 12:43:13;;;;;;;2.42;0.57;;;23.50;57.00;;;;;;5061020;28;20033;-81
2022/05/06 12:45:52;;;;;;;1.40;0.60;;;23.10;57.10;;;;;;5068869;28;20471;-78
2022/05/06 12:51:04;;;;;;;1.55;1.08;;;22.50;58.80;;;;;;5072306;28;20046;-79
2022/05/06 12:53:30;;;;;;;1.80;0.75;;;22.30;58.80;;;;;;5073126;28;20444;-82
2022/05/06 12:55:55;;;;;;;1.23;0.90;;;22.20;59.10;;;;;;5067368;28;20028;-83
2022/05/06 12:58:27;;;;;;;1.98;0.90;;;22.20;58.70;;;;;;5065873;28;20040;-83
2022/05/06 13:00:54;;;;;;;2.20;0.70;;;22.30;59.60;;;;;;5059264;28;20370;-82
2022/05/06 13:03:19;;;;;;;2.67;0.60;;;22.50;60.10;;;;;;5061108;28;20288;-83
2022/05/06 13:05:45;;;;;;;1.77;0.73;;;23.00;60.80;;;;;;5054325;28;20044;-82
2022/05/06 13:08:10;;;;;;;0.98;0.57;;;23.40;56.60;;;;;;5051962;28;20028;-84
2022/05/06 13:10:37;;;;;;;2.90;0.60;;;23.90;56.60;;;;;;5068259;28;20612;-82
2022/05/06 13:13:03;;;;;;;1.70;0.80;;;24.40;55.20;;;;;;5053192;28;20021;-83
2022/05/06 13:15:29;;;;;;;1.23;0.70;;;24.70;57.00;;;;;;5050850;28;20450;-82
2022/05/06 13:17:54;;;;;;;0.47;0.32;;;24.70;53.90;;;;;;5052220;28;20417;-78
2022/05/06 13:20:20;;;;;;;2.17;0.52;;;24.40;54.10;;;;;;5051880;28;20457;-79
2022/05/06 13:22:45;;;;;;;1.38;0.73;;;24.20;54.80;;;;;;5031240;28;20109;-77
2022/05/06 13:25:11;;;;;;;1.67;0.60;;;24.00;54.70;;;;;;5032129;28;20121;-77
2022/05/06 13:27:37;;;;;;;1.83;0.52;;;23.90;55.50;;;;;;5032235;28;20030;-81
2022/05/06 13:30:03;;;;;;;3.35;0.70;;;23.60;56.50;;;;;;5031152;28;20052;-80
2022/05/06 13:32:29;;;;;;;3.40;1.05;;;23.40;56.20;;;;;;5041622;28;20040;-78
2022/05/06 13:34:54;;;;;;;3.03;0.93;;;23.20;58.00;;;;;;5057334;28;20032;-81
2022/05/06 13:37:19;;;;;;;1.05;0.90;;;23.10;56.50;;;;;;5051360;28;20029;-80
2022/05/06 13:39:45;;;;;;;1.55;0.70;;;22.90;55.20;;;;;;5052210;28;20105;-80